sensor_id;sensor_type;location;lat;lon;timestamp;temperature;humidity
41344;DHT22;27089;50.022;7.604;2023-05-14T00:01:33;8.20;99.90
41344;DHT22;27089;50.022;7.604;2023-05-14T00:04:00;8.10;99.90
41344;DHT22;27089;50.022;7.604;2023-05-14T00:06:29;8.10;99.90
41344;DHT22;27089;50.022;7.604;2023-05-14T00:08:56;8.10;99.90
41344;DHT22;27089;50.022;7.604;2023-05-14T00:11:23;8.00;99.90
41344;DHT22;27089;50.022;7.604;2023-05-14T00:13:50;8.00;99.90
41344;DHT22;27089;50.022;7.604;2023-05-14T00:16:17;8.00;99.90
41344;DHT22;27089;50.022;7.604;2023-05-14T00:18:44;7.90;99.90
41344;DHT22;27089;50.022;7.604;2023-05-14T00:21:11;7.90;99.90
41344;DHT22;27089;50.022;7.604;2023-05-14T00:23:39;8.00;99.90
41344;DHT22;27089;50.022;7.604;2023-05-14T00:26:07;8.00;99.90
41344;DHT22;27089;50.022;7.604;2023-05-14T00:28:34;8.10;99.90
41344;DHT22;27089;50.022;7.604;2023-05-14T00:31:00;8.10;99.90
41344;DHT22;27089;50.022;7.604;2023-05-14T00:33:27;8.10;99.90
41344;DHT22;27089;50.022;7.604;2023-05-14T00:35:54;8.10;99.90
41344;DHT22;27089;50.022;7.604;2023-05-14T00:38:22;8.20;99.90
41344;DHT22;27089;50.022;7.604;2023-05-14T00:40:53;8.10;99.90
41344;DHT22;27089;50.022;7.604;2023-05-14T00:43:21;8.10;99.90
41344;DHT22;27089;50.022;7.604;2023-05-14T00:45:49;8.10;99.90
41344;DHT22;27089;50.022;7.604;2023-05-14T00:48:17;8.10;99.90
41344;DHT22;27089;50.022;7.604;2023-05-14T00:50:45;7.90;99.90
41344;DHT22;27089;50.022;7.604;2023-05-14T00:53:13;7.80;99.90
41344;DHT22;27089;50.022;7.604;2023-05-14T00:55:41;7.70;99.90
41344;DHT22;27089;50.022;7.604;2023-05-14T00:58:11;7.60;99.90
41344;DHT22;27089;50.022;7.604;2023-05-14T01:00:39;7.50;99.90
41344;DHT22;27089;50.022;7.604;2023-05-14T01:03:06;7.40;99.90
41344;DHT22;27089;50.022;7.604;2023-05-14T01:05:40;7.40;99.90
41344;DHT22;27089;50.022;7.604;2023-05-14T01:08:21;7.50;99.90
41344;DHT22;27089;50.022;7.604;2023-05-14T01:10:52;7.50;99.90
41344;DHT22;27089;50.022;7.604;2023-05-14T01:13:28;7.50;99.90
41344;DHT22;27089;50.022;7.604;2023-05-14T01:15:58;7.40;99.90
41344;DHT22;27089;50.022;7.604;2023-05-14T01:18:27;7.40;99.90
41344;DHT22;27089;50.022;7.604;2023-05-14T01:20:55;7.30;99.90
41344;DHT22;27089;50.022;7.604;2023-05-14T01:23:23;7.30;99.90
41344;DHT22;27089;50.022;7.604;2023-05-14T01:25:50;7.30;99.90
41344;DHT22;27089;50.022;7.604;2023-05-14T01:28:18;7.20;99.90
41344;DHT22;27089;50.022;7.604;2023-05-14T01:30:48;7.20;99.90
41344;DHT22;27089;50.022;7.604;2023-05-14T01:33:18;7.10;99.90
41344;DHT22;27089;50.022;7.604;2023-05-14T01:35:45;7.10;99.90
41344;DHT22;27089;50.022;7.604;2023-05-14T01:38:14;7.00;99.90
41344;DHT22;27089;50.022;7.604;2023-05-14T01:40:46;7.10;99.90
41344;DHT22;27089;50.022;7.604;2023-05-14T01:43:14;7.10;99.90
41344;DHT22;27089;50.022;7.604;2023-05-14T01:45:42;7.20;99.90
41344;DHT22;27089;50.022;7.604;2023-05-14T01:48:09;7.10;99.90
41344;DHT22;27089;50.022;7.604;2023-05-14T01:50:36;7.00;99.90
41344;DHT22;27089;50.022;7.604;2023-05-14T01:53:03;6.90;99.90
41344;DHT22;27089;50.022;7.604;2023-05-14T01:55:30;6.70;99.90
41344;DHT22;27089;50.022;7.604;2023-05-14T01:57:58;6.60;99.90
41344;DHT22;27089;50.022;7.604;2023-05-14T02:00:26;6.60;99.90
41344;DHT22;27089;50.022;7.604;2023-05-14T02:02:53;6.60;99.90
41344;DHT22;27089;50.022;7.604;2023-05-14T02:05:19;6.60;99.90
41344;DHT22;27089;50.022;7.604;2023-05-14T02:07:46;6.60;99.90
41344;DHT22;27089;50.022;7.604;2023-05-14T02:10:13;6.50;99.90
41344;DHT22;27089;50.022;7.604;2023-05-14T02:12:40;6.50;99.90
41344;DHT22;27089;50.022;7.604;2023-05-14T02:15:09;6.50;99.90
41344;DHT22;27089;50.022;7.604;2023-05-14T02:17:36;6.70;99.90
41344;DHT22;27089;50.022;7.604;2023-05-14T02:20:04;6.70;99.90
41344;DHT22;27089;50.022;7.604;2023-05-14T02:22:32;6.70;99.90
41344;DHT22;27089;50.022;7.604;2023-05-14T02:24:59;6.60;99.90
41344;DHT22;27089;50.022;7.604;2023-05-14T02:27:26;6.50;99.90
41344;DHT22;27089;50.022;7.604;2023-05-14T02:29:53;6.40;99.90
41344;DHT22;27089;50.022;7.604;2023-05-14T02:32:22;6.40;99.90
41344;DHT22;27089;50.022;7.604;2023-05-14T02:34:49;6.40;99.90
41344;DHT22;27089;50.022;7.604;2023-05-14T02:37:16;6.40;99.90
41344;DHT22;27089;50.022;7.604;2023-05-14T02:39:43;6.40;99.90
41344;DHT22;27089;50.022;7.604;2023-05-14T02:42:10;6.40;99.90
41344;DHT22;27089;50.022;7.604;2023-05-14T02:44:37;6.40;99.90
41344;DHT22;27089;50.022;7.604;2023-05-14T02:47:04;6.40;99.90
41344;DHT22;27089;50.022;7.604;2023-05-14T02:49:33;6.30;99.90
41344;DHT22;27089;50.022;7.604;2023-05-14T02:51:59;6.20;99.90
41344;DHT22;27089;50.022;7.604;2023-05-14T02:54:26;6.20;99.90
41344;DHT22;27089;50.022;7.604;2023-05-14T02:56:53;6.20;99.90
41344;DHT22;27089;50.022;7.604;2023-05-14T02:59:21;6.20;99.90
41344;DHT22;27089;50.022;7.604;2023-05-14T03:01:48;6.10;99.90
41344;DHT22;27089;50.022;7.604;2023-05-14T03:04:15;6.10;99.90
41344;DHT22;27089;50.022;7.604;2023-05-14T03:06:43;6.00;99.90
41344;DHT22;27089;50.022;7.604;2023-05-14T03:09:10;6.00;99.90
41344;DHT22;27089;50.022;7.604;2023-05-14T03:11:37;6.00;99.90
41344;DHT22;27089;50.022;7.604;2023-05-14T03:14:04;6.10;99.90
41344;DHT22;27089;50.022;7.604;2023-05-14T03:16:31;5.90;99.90
41344;DHT22;27089;50.022;7.604;2023-05-14T03:18:58;5.80;99.90
41344;DHT22;27089;50.022;7.604;2023-05-14T03:21:25;5.70;99.90
41344;DHT22;27089;50.022;7.604;2023-05-14T03:23:53;5.70;99.90
41344;DHT22;27089;50.022;7.604;2023-05-14T03:26:20;5.70;99.90
41344;DHT22;27089;50.022;7.604;2023-05-14T03:28:47;5.80;99.90
41344;DHT22;27089;50.022;7.604;2023-05-14T03:31:14;5.90;99.90
41344;DHT22;27089;50.022;7.604;2023-05-14T03:33:41;6.00;99.90
41344;DHT22;27089;50.022;7.604;2023-05-14T03:36:08;6.00;99.90
41344;DHT22;27089;50.022;7.604;2023-05-14T03:38:35;6.00;99.90
41344;DHT22;27089;50.022;7.604;2023-05-14T03:41:03;5.90;99.90
41344;DHT22;27089;50.022;7.604;2023-05-14T03:43:30;5.90;99.90
41344;DHT22;27089;50.022;7.604;2023-05-14T03:45:57;5.80;99.90
41344;DHT22;27089;50.022;7.604;2023-05-14T03:48:24;5.70;99.90
41344;DHT22;27089;50.022;7.604;2023-05-14T03:50:51;5.60;99.90
41344;DHT22;27089;50.022;7.604;2023-05-14T03:53:18;5.70;99.90
41344;DHT22;27089;50.022;7.604;2023-05-14T03:55:45;5.80;99.90
41344;DHT22;27089;50.022;7.604;2023-05-14T03:58:13;5.90;99.90
41344;DHT22;27089;50.022;7.604;2023-05-14T04:00:40;6.00;99.90
41344;DHT22;27089;50.022;7.604;2023-05-14T04:03:07;6.10;99.90
41344;DHT22;27089;50.022;7.604;2023-05-14T04:05:34;6.10;99.90
41344;DHT22;27089;50.022;7.604;2023-05-14T04:08:01;6.10;99.90
41344;DHT22;27089;50.022;7.604;2023-05-14T04:10:29;6.10;99.90
41344;DHT22;27089;50.022;7.604;2023-05-14T04:12:56;6.20;99.90
41344;DHT22;27089;50.022;7.604;2023-05-14T04:15:25;6.20;99.90
41344;DHT22;27089;50.022;7.604;2023-05-14T04:17:52;6.30;99.90
41344;DHT22;27089;50.022;7.604;2023-05-14T04:20:19;6.40;99.90
41344;DHT22;27089;50.022;7.604;2023-05-14T04:22:46;6.60;99.90
41344;DHT22;27089;50.022;7.604;2023-05-14T04:25:13;6.70;99.90
41344;DHT22;27089;50.022;7.604;2023-05-14T04:27:40;7.00;99.90
41344;DHT22;27089;50.022;7.604;2023-05-14T04:30:08;7.60;99.90
41344;DHT22;27089;50.022;7.604;2023-05-14T04:32:36;8.00;99.90
41344;DHT22;27089;50.022;7.604;2023-05-14T04:35:04;8.60;99.90
41344;DHT22;27089;50.022;7.604;2023-05-14T04:37:31;8.90;99.90
41344;DHT22;27089;50.022;7.604;2023-05-14T04:39:58;9.50;99.90
41344;DHT22;27089;50.022;7.604;2023-05-14T04:42:25;9.70;99.90
41344;DHT22;27089;50.022;7.604;2023-05-14T04:44:52;9.80;99.90
41344;DHT22;27089;50.022;7.604;2023-05-14T04:47:19;9.70;99.90
41344;DHT22;27089;50.022;7.604;2023-05-14T04:49:48;9.50;99.90
41344;DHT22;27089;50.022;7.604;2023-05-14T04:52:15;9.40;99.90
41344;DHT22;27089;50.022;7.604;2023-05-14T04:54:42;9.70;99.90
41344;DHT22;27089;50.022;7.604;2023-05-14T04:57:09;10.40;99.90
41344;DHT22;27089;50.022;7.604;2023-05-14T04:59:36;10.80;99.90
41344;DHT22;27089;50.022;7.604;2023-05-14T05:02:03;10.60;99.90
41344;DHT22;27089;50.022;7.604;2023-05-14T05:04:30;10.40;99.90
41344;DHT22;27089;50.022;7.604;2023-05-14T05:06:58;10.40;99.90
41344;DHT22;27089;50.022;7.604;2023-05-14T05:09:25;10.30;99.90
41344;DHT22;27089;50.022;7.604;2023-05-14T05:11:52;10.60;99.90
41344;DHT22;27089;50.022;7.604;2023-05-14T05:14:19;11.60;99.90
41344;DHT22;27089;50.022;7.604;2023-05-14T05:16:46;12.80;99.90
41344;DHT22;27089;50.022;7.604;2023-05-14T05:19:13;14.10;99.90
41344;DHT22;27089;50.022;7.604;2023-05-14T05:21:40;15.10;99.90
41344;DHT22;27089;50.022;7.604;2023-05-14T05:24:08;15.10;99.90
41344;DHT22;27089;50.022;7.604;2023-05-14T05:26:35;14.40;99.90
41344;DHT22;27089;50.022;7.604;2023-05-14T05:29:02;13.90;99.90
41344;DHT22;27089;50.022;7.604;2023-05-14T05:31:29;13.40;99.90
41344;DHT22;27089;50.022;7.604;2023-05-14T05:33:57;13.00;99.90
41344;DHT22;27089;50.022;7.604;2023-05-14T05:36:25;12.90;99.90
41344;DHT22;27089;50.022;7.604;2023-05-14T05:38:51;12.80;99.90
41344;DHT22;27089;50.022;7.604;2023-05-14T05:41:20;13.10;99.90
41344;DHT22;27089;50.022;7.604;2023-05-14T05:43:47;14.50;99.90
41344;DHT22;27089;50.022;7.604;2023-05-14T05:46:14;16.40;99.90
41344;DHT22;27089;50.022;7.604;2023-05-14T05:48:41;18.10;99.90
41344;DHT22;27089;50.022;7.604;2023-05-14T05:51:08;19.70;99.90
41344;DHT22;27089;50.022;7.604;2023-05-14T05:53:35;21.00;99.90
41344;DHT22;27089;50.022;7.604;2023-05-14T05:56:02;22.20;99.90
41344;DHT22;27089;50.022;7.604;2023-05-14T05:58:30;23.00;99.90
41344;DHT22;27089;50.022;7.604;2023-05-14T06:00:57;23.70;99.90
41344;DHT22;27089;50.022;7.604;2023-05-14T06:03:24;24.20;99.90
41344;DHT22;27089;50.022;7.604;2023-05-14T06:05:51;24.60;99.90
41344;DHT22;27089;50.022;7.604;2023-05-14T06:08:18;25.30;99.30
41344;DHT22;27089;50.022;7.604;2023-05-14T06:10:45;25.80;97.60
41344;DHT22;27089;50.022;7.604;2023-05-14T06:13:12;26.20;95.60
41344;DHT22;27089;50.022;7.604;2023-05-14T06:15:40;26.60;94.60
41344;DHT22;27089;50.022;7.604;2023-05-14T06:18:07;26.80;93.80
41344;DHT22;27089;50.022;7.604;2023-05-14T06:20:34;27.20;92.70
41344;DHT22;27089;50.022;7.604;2023-05-14T06:23:01;27.70;91.30
41344;DHT22;27089;50.022;7.604;2023-05-14T06:25:28;27.80;90.40
41344;DHT22;27089;50.022;7.604;2023-05-14T06:27:55;28.50;90.20
41344;DHT22;27089;50.022;7.604;2023-05-14T06:30:22;28.80;87.20
41344;DHT22;27089;50.022;7.604;2023-05-14T06:32:50;29.10;86.70
41344;DHT22;27089;50.022;7.604;2023-05-14T06:35:17;29.70;84.00
41344;DHT22;27089;50.022;7.604;2023-05-14T06:37:45;30.20;82.70
41344;DHT22;27089;50.022;7.604;2023-05-14T06:40:12;30.80;78.20
41344;DHT22;27089;50.022;7.604;2023-05-14T06:42:40;31.10;75.70
41344;DHT22;27089;50.022;7.604;2023-05-14T06:45:08;31.30;75.30
41344;DHT22;27089;50.022;7.604;2023-05-14T06:47:35;31.40;72.80
41344;DHT22;27089;50.022;7.604;2023-05-14T06:50:04;31.70;70.10
41344;DHT22;27089;50.022;7.604;2023-05-14T06:52:31;31.80;67.60
41344;DHT22;27089;50.022;7.604;2023-05-14T06:54:58;30.90;67.20
41344;DHT22;27089;50.022;7.604;2023-05-14T06:57:25;30.80;66.40
41344;DHT22;27089;50.022;7.604;2023-05-14T06:59:52;30.40;66.00
41344;DHT22;27089;50.022;7.604;2023-05-14T07:02:19;29.90;67.80
41344;DHT22;27089;50.022;7.604;2023-05-14T07:04:46;29.20;67.20
41344;DHT22;27089;50.022;7.604;2023-05-14T07:07:15;29.10;69.20
41344;DHT22;27089;50.022;7.604;2023-05-14T07:09:45;28.10;70.10
41344;DHT22;27089;50.022;7.604;2023-05-14T07:12:12;28.70;70.60
41344;DHT22;27089;50.022;7.604;2023-05-14T07:14:39;28.00;69.70
41344;DHT22;27089;50.022;7.604;2023-05-14T07:17:06;27.10;71.70
41344;DHT22;27089;50.022;7.604;2023-05-14T07:19:33;27.40;72.50
41344;DHT22;27089;50.022;7.604;2023-05-14T07:22:00;27.60;71.20
41344;DHT22;27089;50.022;7.604;2023-05-14T07:24:28;27.70;69.70
41344;DHT22;27089;50.022;7.604;2023-05-14T07:26:55;27.80;71.00
41344;DHT22;27089;50.022;7.604;2023-05-14T07:29:22;26.30;73.80
41344;DHT22;27089;50.022;7.604;2023-05-14T07:31:50;24.80;78.80
41344;DHT22;27089;50.022;7.604;2023-05-14T07:34:17;23.80;85.20
41344;DHT22;27089;50.022;7.604;2023-05-14T07:36:45;24.60;80.90
41344;DHT22;27089;50.022;7.604;2023-05-14T07:39:12;25.70;78.90
41344;DHT22;27089;50.022;7.604;2023-05-14T07:41:40;24.80;82.60
41344;DHT22;27089;50.022;7.604;2023-05-14T07:44:07;25.60;78.60
41344;DHT22;27089;50.022;7.604;2023-05-14T07:46:35;25.90;76.20
41344;DHT22;27089;50.022;7.604;2023-05-14T07:49:02;26.20;77.20
41344;DHT22;27089;50.022;7.604;2023-05-14T07:51:29;26.70;76.90
41344;DHT22;27089;50.022;7.604;2023-05-14T07:53:58;26.10;77.90
41344;DHT22;27089;50.022;7.604;2023-05-14T07:56:25;27.00;75.70
41344;DHT22;27089;50.022;7.604;2023-05-14T07:58:53;26.60;75.90
41344;DHT22;27089;50.022;7.604;2023-05-14T08:01:20;27.40;75.20
41344;DHT22;27089;50.022;7.604;2023-05-14T08:03:48;27.60;72.20
41344;DHT22;27089;50.022;7.604;2023-05-14T08:06:15;28.40;70.30
41344;DHT22;27089;50.022;7.604;2023-05-14T08:08:42;28.80;70.30
41344;DHT22;27089;50.022;7.604;2023-05-14T08:11:09;28.90;70.60
41344;DHT22;27089;50.022;7.604;2023-05-14T08:13:36;28.40;70.10
41344;DHT22;27089;50.022;7.604;2023-05-14T08:16:05;27.50;70.10
41344;DHT22;27089;50.022;7.604;2023-05-14T08:18:32;24.40;78.50
41344;DHT22;27089;50.022;7.604;2023-05-14T08:20:59;24.10;82.80
41344;DHT22;27089;50.022;7.604;2023-05-14T08:23:27;22.50;87.60
41344;DHT22;27089;50.022;7.604;2023-05-14T08:25:54;21.70;93.40
41344;DHT22;27089;50.022;7.604;2023-05-14T08:28:21;22.40;93.40
41344;DHT22;27089;50.022;7.604;2023-05-14T08:30:48;22.80;92.40
41344;DHT22;27089;50.022;7.604;2023-05-14T08:33:17;22.00;91.20
41344;DHT22;27089;50.022;7.604;2023-05-14T08:35:44;20.00;98.00
41344;DHT22;27089;50.022;7.604;2023-05-14T08:38:11;19.30;99.90
41344;DHT22;27089;50.022;7.604;2023-05-14T08:40:38;18.80;99.90
41344;DHT22;27089;50.022;7.604;2023-05-14T08:43:05;18.90;99.90
41344;DHT22;27089;50.022;7.604;2023-05-14T08:45:36;20.70;99.90
41344;DHT22;27089;50.022;7.604;2023-05-14T08:48:06;21.60;97.50
41344;DHT22;27089;50.022;7.604;2023-05-14T08:50:36;22.20;96.50
41344;DHT22;27089;50.022;7.604;2023-05-14T08:53:03;21.30;94.90
41344;DHT22;27089;50.022;7.604;2023-05-14T08:55:31;21.40;97.50
41344;DHT22;27089;50.022;7.604;2023-05-14T08:57:58;21.20;95.60
41344;DHT22;27089;50.022;7.604;2023-05-14T09:00:25;22.10;94.80
41344;DHT22;27089;50.022;7.604;2023-05-14T09:02:53;22.90;91.50
41344;DHT22;27089;50.022;7.604;2023-05-14T09:05:21;23.10;91.90
41344;DHT22;27089;50.022;7.604;2023-05-14T09:07:50;23.10;88.60
41344;DHT22;27089;50.022;7.604;2023-05-14T09:10:18;23.50;87.00
41344;DHT22;27089;50.022;7.604;2023-05-14T09:12:45;23.90;81.50
41344;DHT22;27089;50.022;7.604;2023-05-14T09:15:12;24.60;80.10
41344;DHT22;27089;50.022;7.604;2023-05-14T09:17:39;24.80;79.80
41344;DHT22;27089;50.022;7.604;2023-05-14T09:20:08;24.70;77.40
41344;DHT22;27089;50.022;7.604;2023-05-14T09:22:37;23.50;82.10
41344;DHT22;27089;50.022;7.604;2023-05-14T09:25:07;21.50;89.60
41344;DHT22;27089;50.022;7.604;2023-05-14T09:27:37;20.50;94.40
41344;DHT22;27089;50.022;7.604;2023-05-14T09:30:06;20.90;93.80
41344;DHT22;27089;50.022;7.604;2023-05-14T09:32:37;21.10;94.10
41344;DHT22;27089;50.022;7.604;2023-05-14T09:35:15;21.30;93.40
41344;DHT22;27089;50.022;7.604;2023-05-14T09:37:44;22.10;92.90
41344;DHT22;27089;50.022;7.604;2023-05-14T09:40:14;22.60;90.10
41344;DHT22;27089;50.022;7.604;2023-05-14T09:42:42;22.80;90.30
41344;DHT22;27089;50.022;7.604;2023-05-14T09:45:09;22.80;87.60
41344;DHT22;27089;50.022;7.604;2023-05-14T09:47:38;22.30;91.30
41344;DHT22;27089;50.022;7.604;2023-05-14T09:50:06;21.80;91.40
41344;DHT22;27089;50.022;7.604;2023-05-14T09:52:33;21.30;92.50
41344;DHT22;27089;50.022;7.604;2023-05-14T09:55:00;20.60;94.20
41344;DHT22;27089;50.022;7.604;2023-05-14T09:57:29;20.50;95.70
41344;DHT22;27089;50.022;7.604;2023-05-14T09:59:56;20.90;94.80
41344;DHT22;27089;50.022;7.604;2023-05-14T10:02:24;21.50;94.00
41344;DHT22;27089;50.022;7.604;2023-05-14T10:04:54;21.40;91.70
41344;DHT22;27089;50.022;7.604;2023-05-14T10:07:32;21.20;93.30
41344;DHT22;27089;50.022;7.604;2023-05-14T10:10:02;20.70;94.50
41344;DHT22;27089;50.022;7.604;2023-05-14T10:12:33;20.50;94.90
41344;DHT22;27089;50.022;7.604;2023-05-14T10:15:03;19.50;99.30
41344;DHT22;27089;50.022;7.604;2023-05-14T10:17:34;19.80;98.40
41344;DHT22;27089;50.022;7.604;2023-05-14T10:20:02;19.80;99.90
41344;DHT22;27089;50.022;7.604;2023-05-14T10:22:34;20.10;99.90
41344;DHT22;27089;50.022;7.604;2023-05-14T10:25:02;20.70;96.60
41344;DHT22;27089;50.022;7.604;2023-05-14T10:27:31;21.10;97.40
41344;DHT22;27089;50.022;7.604;2023-05-14T10:29:58;20.90;97.70
41344;DHT22;27089;50.022;7.604;2023-05-14T10:32:25;20.70;98.60
41344;DHT22;27089;50.022;7.604;2023-05-14T10:34:57;20.20;99.90
41344;DHT22;27089;50.022;7.604;2023-05-14T10:37:27;20.00;99.90
41344;DHT22;27089;50.022;7.604;2023-05-14T10:39:58;18.90;99.90
41344;DHT22;27089;50.022;7.604;2023-05-14T10:42:29;18.70;99.90
41344;DHT22;27089;50.022;7.604;2023-05-14T10:45:00;19.10;99.90
41344;DHT22;27089;50.022;7.604;2023-05-14T10:47:30;19.70;99.90
41344;DHT22;27089;50.022;7.604;2023-05-14T10:49:58;19.90;99.90
41344;DHT22;27089;50.022;7.604;2023-05-14T10:52:26;19.50;99.90
41344;DHT22;27089;50.022;7.604;2023-05-14T10:54:54;18.90;99.90
41344;DHT22;27089;50.022;7.604;2023-05-14T10:57:23;18.80;99.90
41344;DHT22;27089;50.022;7.604;2023-05-14T10:59:51;19.20;99.90
41344;DHT22;27089;50.022;7.604;2023-05-14T11:02:23;19.80;99.90
41344;DHT22;27089;50.022;7.604;2023-05-14T11:04:58;20.10;99.90
41344;DHT22;27089;50.022;7.604;2023-05-14T11:07:29;20.30;99.90
41344;DHT22;27089;50.022;7.604;2023-05-14T11:10:00;19.60;99.90
41344;DHT22;27089;50.022;7.604;2023-05-14T11:12:28;18.80;99.90
41344;DHT22;27089;50.022;7.604;2023-05-14T11:14:56;18.40;99.90
41344;DHT22;27089;50.022;7.604;2023-05-14T11:17:25;18.40;99.90
41344;DHT22;27089;50.022;7.604;2023-05-14T11:19:54;18.60;99.90
41344;DHT22;27089;50.022;7.604;2023-05-14T11:22:21;18.70;99.90
41344;DHT22;27089;50.022;7.604;2023-05-14T11:24:49;18.50;99.90
41344;DHT22;27089;50.022;7.604;2023-05-14T11:27:16;18.70;99.90
41344;DHT22;27089;50.022;7.604;2023-05-14T11:29:44;18.50;99.90
41344;DHT22;27089;50.022;7.604;2023-05-14T11:32:12;18.40;99.90
41344;DHT22;27089;50.022;7.604;2023-05-14T11:34:41;18.50;99.90
41344;DHT22;27089;50.022;7.604;2023-05-14T11:37:10;19.00;99.90
41344;DHT22;27089;50.022;7.604;2023-05-14T11:39:37;19.10;99.90
41344;DHT22;27089;50.022;7.604;2023-05-14T11:42:08;18.60;99.90
41344;DHT22;27089;50.022;7.604;2023-05-14T11:44:39;18.00;99.90
41344;DHT22;27089;50.022;7.604;2023-05-14T11:47:06;18.10;99.90
41344;DHT22;27089;50.022;7.604;2023-05-14T11:49:33;18.60;99.90
41344;DHT22;27089;50.022;7.604;2023-05-14T11:52:04;18.90;99.90
41344;DHT22;27089;50.022;7.604;2023-05-14T11:54:32;19.10;99.90
41344;DHT22;27089;50.022;7.604;2023-05-14T11:57:01;19.40;99.90
41344;DHT22;27089;50.022;7.604;2023-05-14T11:59:31;18.80;99.90
41344;DHT22;27089;50.022;7.604;2023-05-14T12:01:58;18.70;99.90
41344;DHT22;27089;50.022;7.604;2023-05-14T12:04:25;18.40;99.90
41344;DHT22;27089;50.022;7.604;2023-05-14T12:06:52;18.70;99.90
41344;DHT22;27089;50.022;7.604;2023-05-14T12:09:21;18.80;99.90
41344;DHT22;27089;50.022;7.604;2023-05-14T12:11:49;18.90;99.90
41344;DHT22;27089;50.022;7.604;2023-05-14T12:14:18;19.20;99.90
41344;DHT22;27089;50.022;7.604;2023-05-14T12:16:46;19.50;99.90
41344;DHT22;27089;50.022;7.604;2023-05-14T12:19:14;19.80;99.90
41344;DHT22;27089;50.022;7.604;2023-05-14T12:21:42;19.80;99.90
41344;DHT22;27089;50.022;7.604;2023-05-14T12:24:11;18.80;99.90
41344;DHT22;27089;50.022;7.604;2023-05-14T12:26:44;18.60;99.90
41344;DHT22;27089;50.022;7.604;2023-05-14T12:29:12;18.60;99.90
41344;DHT22;27089;50.022;7.604;2023-05-14T12:31:45;19.00;99.90
41344;DHT22;27089;50.022;7.604;2023-05-14T12:34:12;19.40;99.90
41344;DHT22;27089;50.022;7.604;2023-05-14T12:36:39;19.40;99.90
41344;DHT22;27089;50.022;7.604;2023-05-14T12:39:06;19.00;99.90
41344;DHT22;27089;50.022;7.604;2023-05-14T12:41:34;18.90;99.90
41344;DHT22;27089;50.022;7.604;2023-05-14T12:44:03;18.90;99.90
41344;DHT22;27089;50.022;7.604;2023-05-14T12:46:31;19.00;99.90
41344;DHT22;27089;50.022;7.604;2023-05-14T12:48:59;19.10;99.90
41344;DHT22;27089;50.022;7.604;2023-05-14T12:51:26;18.90;99.90
41344;DHT22;27089;50.022;7.604;2023-05-14T12:53:53;18.90;99.90
41344;DHT22;27089;50.022;7.604;2023-05-14T12:56:20;18.90;99.90
41344;DHT22;27089;50.022;7.604;2023-05-14T12:58:53;19.30;99.90
41344;DHT22;27089;50.022;7.604;2023-05-14T13:01:22;19.50;99.90
41344;DHT22;27089;50.022;7.604;2023-05-14T13:03:49;19.60;99.90
41344;DHT22;27089;50.022;7.604;2023-05-14T13:06:16;19.90;99.90
41344;DHT22;27089;50.022;7.604;2023-05-14T13:08:43;20.00;99.90
41344;DHT22;27089;50.022;7.604;2023-05-14T13:11:10;20.30;99.90
41344;DHT22;27089;50.022;7.604;2023-05-14T13:13:37;20.20;99.90
41344;DHT22;27089;50.022;7.604;2023-05-14T13:16:05;19.40;99.90
41344;DHT22;27089;50.022;7.604;2023-05-14T13:18:33;19.20;99.90
41344;DHT22;27089;50.022;7.604;2023-05-14T13:21:00;19.20;99.90
41344;DHT22;27089;50.022;7.604;2023-05-14T13:23:30;19.70;99.90
41344;DHT22;27089;50.022;7.604;2023-05-14T13:25:58;19.50;99.90
41344;DHT22;27089;50.022;7.604;2023-05-14T13:28:25;19.20;99.90
41344;DHT22;27089;50.022;7.604;2023-05-14T13:31:06;18.80;99.90
41344;DHT22;27089;50.022;7.604;2023-05-14T13:33:37;18.80;99.90
41344;DHT22;27089;50.022;7.604;2023-05-14T13:36:04;19.00;99.90
41344;DHT22;27089;50.022;7.604;2023-05-14T13:38:31;19.30;99.90
41344;DHT22;27089;50.022;7.604;2023-05-14T13:40:58;19.60;99.90
41344;DHT22;27089;50.022;7.604;2023-05-14T13:43:28;19.90;99.90
41344;DHT22;27089;50.022;7.604;2023-05-14T13:45:55;20.00;99.90
41344;DHT22;27089;50.022;7.604;2023-05-14T13:48:23;20.00;99.90
41344;DHT22;27089;50.022;7.604;2023-05-14T13:50:51;20.00;99.90
41344;DHT22;27089;50.022;7.604;2023-05-14T13:53:18;20.00;99.90
41344;DHT22;27089;50.022;7.604;2023-05-14T13:55:45;20.00;99.90
41344;DHT22;27089;50.022;7.604;2023-05-14T13:58:13;20.10;99.90
41344;DHT22;27089;50.022;7.604;2023-05-14T14:00:40;20.60;99.90
41344;DHT22;27089;50.022;7.604;2023-05-14T14:03:07;20.80;99.90
41344;DHT22;27089;50.022;7.604;2023-05-14T14:05:34;20.40;99.90
41344;DHT22;27089;50.022;7.604;2023-05-14T14:08:03;19.50;99.90
41344;DHT22;27089;50.022;7.604;2023-05-14T14:10:30;19.00;99.90
41344;DHT22;27089;50.022;7.604;2023-05-14T14:12:57;18.90;99.90
41344;DHT22;27089;50.022;7.604;2023-05-14T14:15:24;18.50;99.90
41344;DHT22;27089;50.022;7.604;2023-05-14T14:17:51;18.40;99.90
41344;DHT22;27089;50.022;7.604;2023-05-14T14:20:18;18.30;99.90
41344;DHT22;27089;50.022;7.604;2023-05-14T14:22:45;18.40;99.90
41344;DHT22;27089;50.022;7.604;2023-05-14T14:25:13;18.70;99.90
41344;DHT22;27089;50.022;7.604;2023-05-14T14:27:40;18.90;99.90
41344;DHT22;27089;50.022;7.604;2023-05-14T14:30:08;19.20;99.90
41344;DHT22;27089;50.022;7.604;2023-05-14T14:32:40;19.50;99.90
41344;DHT22;27089;50.022;7.604;2023-05-14T14:35:09;19.70;99.90
41344;DHT22;27089;50.022;7.604;2023-05-14T14:37:36;20.00;99.90
41344;DHT22;27089;50.022;7.604;2023-05-14T14:40:03;20.40;99.90
41344;DHT22;27089;50.022;7.604;2023-05-14T14:42:34;20.80;99.90
41344;DHT22;27089;50.022;7.604;2023-05-14T14:45:01;21.10;99.90
41344;DHT22;27089;50.022;7.604;2023-05-14T14:47:28;21.30;99.90
41344;DHT22;27089;50.022;7.604;2023-05-14T14:49:56;21.50;99.90
41344;DHT22;27089;50.022;7.604;2023-05-14T14:52:23;21.60;99.90
41344;DHT22;27089;50.022;7.604;2023-05-14T14:54:51;21.30;99.90
41344;DHT22;27089;50.022;7.604;2023-05-14T14:57:18;21.20;99.90
41344;DHT22;27089;50.022;7.604;2023-05-14T14:59:46;21.30;99.90
41344;DHT22;27089;50.022;7.604;2023-05-14T15:02:13;21.30;99.90
41344;DHT22;27089;50.022;7.604;2023-05-14T15:04:40;21.10;99.90
41344;DHT22;27089;50.022;7.604;2023-05-14T15:07:07;20.70;99.90
41344;DHT22;27089;50.022;7.604;2023-05-14T15:09:34;20.00;99.90
41344;DHT22;27089;50.022;7.604;2023-05-14T15:12:01;19.50;99.90
41344;DHT22;27089;50.022;7.604;2023-05-14T15:14:28;19.10;99.90
41344;DHT22;27089;50.022;7.604;2023-05-14T15:16:56;18.80;99.90
41344;DHT22;27089;50.022;7.604;2023-05-14T15:19:23;18.70;99.90
41344;DHT22;27089;50.022;7.604;2023-05-14T15:21:50;18.70;99.90
41344;DHT22;27089;50.022;7.604;2023-05-14T15:24:17;18.70;99.90
41344;DHT22;27089;50.022;7.604;2023-05-14T15:26:44;18.90;99.90
41344;DHT22;27089;50.022;7.604;2023-05-14T15:29:12;19.10;99.90
41344;DHT22;27089;50.022;7.604;2023-05-14T15:31:39;19.10;99.90
41344;DHT22;27089;50.022;7.604;2023-05-14T15:34:07;19.10;99.90
41344;DHT22;27089;50.022;7.604;2023-05-14T15:36:34;18.90;99.90
41344;DHT22;27089;50.022;7.604;2023-05-14T15:39:01;18.90;99.90